sensor_id;sensor_type;location;lat;lon;timestamp;P1;durP1;ratioP1;P2;durP2;ratioP2
7957;SDS011;4024;52.172;5.378;2024-03-02T00:00:06;2.83;;;2.50;;
7957;SDS011;4024;52.172;5.378;2024-03-02T00:02:45;5.47;;;2.27;;
7957;SDS011;4024;52.172;5.378;2024-03-02T00:05:12;3.13;;;2.30;;
7957;SDS011;4024;52.172;5.378;2024-03-02T00:07:42;2.90;;;1.97;;
7957;SDS011;4024;52.172;5.378;2024-03-02T00:10:10;3.67;;;1.87;;
7957;SDS011;4024;52.172;5.378;2024-03-02T00:12:39;4.00;;;2.00;;
7957;SDS011;4024;52.172;5.378;2024-03-02T00:18:12;3.20;;;2.37;;
7957;SDS011;4024;52.172;5.378;2024-03-02T00:20:39;3.67;;;2.27;;
7957;SDS011;4024;52.172;5.378;2024-03-02T00:23:06;2.73;;;2.13;;
7957;SDS011;4024;52.172;5.378;2024-03-02T00:25:36;4.97;;;2.30;;
7957;SDS011;4024;52.172;5.378;2024-03-02T00:33:32;4.27;;;2.10;;
7957;SDS011;4024;52.172;5.378;2024-03-02T00:35:59;3.37;;;2.00;;
7957;SDS011;4024;52.172;5.378;2024-03-02T00:38:26;1.97;;;1.70;;
7957;SDS011;4024;52.172;5.378;2024-03-02T00:40:52;3.67;;;2.23;;
7957;SDS011;4024;52.172;5.378;2024-03-02T00:46:02;2.30;;;1.90;;
7957;SDS011;4024;52.172;5.378;2024-03-02T00:48:28;2.33;;;1.73;;
7957;SDS011;4024;52.172;5.378;2024-03-02T00:50:56;1.57;;;1.47;;
7957;SDS011;4024;52.172;5.378;2024-03-02T00:53:23;2.00;;;1.77;;
7957;SDS011;4024;52.172;5.378;2024-03-02T00:55:50;2.60;;;1.57;;
7957;SDS011;4024;52.172;5.378;2024-03-02T00:58:16;1.90;;;1.47;;
7957;SDS011;4024;52.172;5.378;2024-03-02T01:00:42;2.33;;;1.70;;
7957;SDS011;4024;52.172;5.378;2024-03-02T01:03:08;1.50;;;1.40;;
7957;SDS011;4024;52.172;5.378;2024-03-02T01:05:33;1.73;;;1.20;;
7957;SDS011;4024;52.172;5.378;2024-03-02T01:07:59;2.50;;;1.40;;
7957;SDS011;4024;52.172;5.378;2024-03-02T01:10:25;1.60;;;1.10;;
7957;SDS011;4024;52.172;5.378;2024-03-02T01:12:51;1.40;;;1.30;;
7957;SDS011;4024;52.172;5.378;2024-03-02T01:15:17;1.50;;;1.40;;
7957;SDS011;4024;52.172;5.378;2024-03-02T01:17:42;1.63;;;1.20;;
7957;SDS011;4024;52.172;5.378;2024-03-02T01:20:08;1.30;;;1.20;;
7957;SDS011;4024;52.172;5.378;2024-03-02T01:22:34;1.50;;;1.40;;
7957;SDS011;4024;52.172;5.378;2024-03-02T01:25:01;1.20;;;1.10;;
7957;SDS011;4024;52.172;5.378;2024-03-02T01:27:26;1.57;;;1.20;;
7957;SDS011;4024;52.172;5.378;2024-03-02T01:29:53;1.03;;;1.03;;
7957;SDS011;4024;52.172;5.378;2024-03-02T01:32:19;1.43;;;1.20;;
7957;SDS011;4024;52.172;5.378;2024-03-02T01:34:45;2.00;;;1.10;;
7957;SDS011;4024;52.172;5.378;2024-03-02T01:37:11;2.03;;;1.50;;
7957;SDS011;4024;52.172;5.378;2024-03-02T01:39:36;1.13;;;1.10;;
7957;SDS011;4024;52.172;5.378;2024-03-02T01:42:02;1.30;;;1.20;;
7957;SDS011;4024;52.172;5.378;2024-03-02T01:44:28;1.40;;;1.27;;
7957;SDS011;4024;52.172;5.378;2024-03-02T01:46:54;1.10;;;1.10;;
7957;SDS011;4024;52.172;5.378;2024-03-02T01:49:19;1.40;;;1.20;;
7957;SDS011;4024;52.172;5.378;2024-03-02T01:51:45;1.20;;;1.20;;
7957;SDS011;4024;52.172;5.378;2024-03-02T01:54:11;2.33;;;1.17;;
7957;SDS011;4024;52.172;5.378;2024-03-02T01:56:37;1.30;;;1.20;;
7957;SDS011;4024;52.172;5.378;2024-03-02T01:59:02;1.40;;;1.30;;
7957;SDS011;4024;52.172;5.378;2024-03-02T02:01:28;0.90;;;0.90;;
7957;SDS011;4024;52.172;5.378;2024-03-02T02:03:54;1.33;;;1.10;;
7957;SDS011;4024;52.172;5.378;2024-03-02T02:06:20;1.07;;;1.00;;
7957;SDS011;4024;52.172;5.378;2024-03-02T02:08:46;2.80;;;1.30;;
7957;SDS011;4024;52.172;5.378;2024-03-02T02:11:14;1.30;;;1.20;;
7957;SDS011;4024;52.172;5.378;2024-03-02T02:13:40;1.40;;;1.20;;
7957;SDS011;4024;52.172;5.378;2024-03-02T02:16:06;1.43;;;1.20;;
7957;SDS011;4024;52.172;5.378;2024-03-02T02:18:33;2.33;;;1.23;;
7957;SDS011;4024;52.172;5.378;2024-03-02T02:20:59;1.20;;;1.10;;
7957;SDS011;4024;52.172;5.378;2024-03-02T02:23:25;1.20;;;1.10;;
7957;SDS011;4024;52.172;5.378;2024-03-02T02:25:50;1.30;;;1.20;;
7957;SDS011;4024;52.172;5.378;2024-03-02T02:28:16;1.90;;;1.20;;
7957;SDS011;4024;52.172;5.378;2024-03-02T02:30:41;1.60;;;1.50;;
7957;SDS011;4024;52.172;5.378;2024-03-02T02:33:07;1.57;;;1.47;;
7957;SDS011;4024;52.172;5.378;2024-03-02T02:35:34;1.57;;;1.27;;
7957;SDS011;4024;52.172;5.378;2024-03-02T02:38:00;1.87;;;1.30;;
7957;SDS011;4024;52.172;5.378;2024-03-02T02:40:25;1.40;;;1.30;;
7957;SDS011;4024;52.172;5.378;2024-03-02T02:42:51;2.30;;;1.50;;
7957;SDS011;4024;52.172;5.378;2024-03-02T02:45:17;1.20;;;1.10;;
7957;SDS011;4024;52.172;5.378;2024-03-02T02:47:43;1.63;;;1.30;;
7957;SDS011;4024;52.172;5.378;2024-03-02T02:50:10;2.13;;;1.23;;
7957;SDS011;4024;52.172;5.378;2024-03-02T02:52:37;1.50;;;1.40;;
7957;SDS011;4024;52.172;5.378;2024-03-02T02:55:06;1.47;;;1.37;;
7957;SDS011;4024;52.172;5.378;2024-03-02T02:57:32;2.00;;;1.20;;
7957;SDS011;4024;52.172;5.378;2024-03-02T03:00:05;1.40;;;1.30;;
7957;SDS011;4024;52.172;5.378;2024-03-02T03:02:35;1.20;;;1.10;;
7957;SDS011;4024;52.172;5.378;2024-03-02T03:05:02;1.20;;;1.10;;
7957;SDS011;4024;52.172;5.378;2024-03-02T03:07:28;1.57;;;1.13;;
7957;SDS011;4024;52.172;5.378;2024-03-02T03:09:54;1.20;;;1.10;;
7957;SDS011;4024;52.172;5.378;2024-03-02T03:12:19;2.90;;;1.40;;
7957;SDS011;4024;52.172;5.378;2024-03-02T03:14:45;1.50;;;1.03;;
7957;SDS011;4024;52.172;5.378;2024-03-02T03:17:10;1.50;;;1.17;;
7957;SDS011;4024;52.172;5.378;2024-03-02T03:19:37;1.30;;;1.20;;
7957;SDS011;4024;52.172;5.378;2024-03-02T03:22:03;1.70;;;1.20;;
7957;SDS011;4024;52.172;5.378;2024-03-02T03:24:29;1.60;;;1.50;;
7957;SDS011;4024;52.172;5.378;2024-03-02T03:26:55;1.07;;;0.97;;
7957;SDS011;4024;52.172;5.378;2024-03-02T03:29:20;2.20;;;1.13;;
7957;SDS011;4024;52.172;5.378;2024-03-02T03:31:46;1.40;;;1.30;;
7957;SDS011;4024;52.172;5.378;2024-03-02T03:34:12;1.50;;;1.40;;
7957;SDS011;4024;52.172;5.378;2024-03-02T03:36:41;1.20;;;1.10;;
7957;SDS011;4024;52.172;5.378;2024-03-02T03:39:07;1.80;;;1.20;;
7957;SDS011;4024;52.172;5.378;2024-03-02T03:41:32;1.87;;;1.40;;
7957;SDS011;4024;52.172;5.378;2024-03-02T03:43:58;2.37;;;1.00;;
7957;SDS011;4024;52.172;5.378;2024-03-02T03:46:23;1.40;;;1.00;;
7957;SDS011;4024;52.172;5.378;2024-03-02T03:48:49;1.77;;;1.20;;
7957;SDS011;4024;52.172;5.378;2024-03-02T03:51:14;2.73;;;1.27;;
7957;SDS011;4024;52.172;5.378;2024-03-02T03:53:40;1.20;;;1.00;;
7957;SDS011;4024;52.172;5.378;2024-03-02T03:56:06;2.40;;;1.30;;
7957;SDS011;4024;52.172;5.378;2024-03-02T03:58:31;1.30;;;1.20;;
7957;SDS011;4024;52.172;5.378;2024-03-02T04:00:57;2.17;;;1.27;;
7957;SDS011;4024;52.172;5.378;2024-03-02T04:03:22;1.33;;;1.23;;
7957;SDS011;4024;52.172;5.378;2024-03-02T04:05:48;1.50;;;1.40;;
7957;SDS011;4024;52.172;5.378;2024-03-02T04:08:13;1.43;;;1.20;;
7957;SDS011;4024;52.172;5.378;2024-03-02T04:10:39;1.20;;;1.10;;
7957;SDS011;4024;52.172;5.378;2024-03-02T04:13:07;2.00;;;1.00;;
7957;SDS011;4024;52.172;5.378;2024-03-02T04:15:32;1.30;;;1.20;;
7957;SDS011;4024;52.172;5.378;2024-03-02T04:17:58;1.40;;;1.10;;
7957;SDS011;4024;52.172;5.378;2024-03-02T04:20:23;1.23;;;1.13;;
7957;SDS011;4024;52.172;5.378;2024-03-02T04:22:50;1.27;;;1.13;;
7957;SDS011;4024;52.172;5.378;2024-03-02T04:25:16;1.30;;;1.20;;
7957;SDS011;4024;52.172;5.378;2024-03-02T04:27:41;2.00;;;1.13;;
7957;SDS011;4024;52.172;5.378;2024-03-02T04:30:07;1.50;;;1.17;;
7957;SDS011;4024;52.172;5.378;2024-03-02T04:32:33;2.20;;;1.30;;
7957;SDS011;4024;52.172;5.378;2024-03-02T04:35:01;1.40;;;1.30;;
7957;SDS011;4024;52.172;5.378;2024-03-02T04:37:26;2.37;;;1.30;;
7957;SDS011;4024;52.172;5.378;2024-03-02T04:39:52;1.20;;;1.10;;
7957;SDS011;4024;52.172;5.378;2024-03-02T04:42:17;1.33;;;1.23;;
7957;SDS011;4024;52.172;5.378;2024-03-02T04:44:43;1.27;;;1.17;;
7957;SDS011;4024;52.172;5.378;2024-03-02T04:47:09;1.30;;;1.20;;
7957;SDS011;4024;52.172;5.378;2024-03-02T04:49:34;2.03;;;1.20;;
7957;SDS011;4024;52.172;5.378;2024-03-02T04:52:00;1.40;;;1.30;;
7957;SDS011;4024;52.172;5.378;2024-03-02T04:54:26;1.63;;;1.20;;
7957;SDS011;4024;52.172;5.378;2024-03-02T04:56:51;1.33;;;1.10;;
7957;SDS011;4024;52.172;5.378;2024-03-02T04:59:17;1.40;;;1.20;;
7957;SDS011;4024;52.172;5.378;2024-03-02T05:01:43;1.30;;;1.20;;
7957;SDS011;4024;52.172;5.378;2024-03-02T05:04:10;1.17;;;1.10;;
7957;SDS011;4024;52.172;5.378;2024-03-02T05:06:38;2.30;;;1.50;;
7957;SDS011;4024;52.172;5.378;2024-03-02T05:09:08;1.90;;;1.40;;
7957;SDS011;4024;52.172;5.378;2024-03-02T05:11:34;1.40;;;1.30;;
7957;SDS011;4024;52.172;5.378;2024-03-02T05:14:20;1.43;;;1.27;;
7957;SDS011;4024;52.172;5.378;2024-03-02T05:16:45;1.50;;;1.23;;
7957;SDS011;4024;52.172;5.378;2024-03-02T05:19:11;1.20;;;1.20;;
7957;SDS011;4024;52.172;5.378;2024-03-02T05:21:36;2.10;;;1.50;;
7957;SDS011;4024;52.172;5.378;2024-03-02T05:24:02;1.97;;;1.30;;
7957;SDS011;4024;52.172;5.378;2024-03-02T05:26:28;2.70;;;1.40;;
7957;SDS011;4024;52.172;5.378;2024-03-02T05:28:53;3.17;;;1.43;;
7957;SDS011;4024;52.172;5.378;2024-03-02T05:31:19;3.23;;;1.23;;
7957;SDS011;4024;52.172;5.378;2024-03-02T05:33:45;2.43;;;1.07;;
7957;SDS011;4024;52.172;5.378;2024-03-02T05:36:10;1.93;;;1.37;;
7957;SDS011;4024;52.172;5.378;2024-03-02T05:38:36;2.07;;;1.30;;
7957;SDS011;4024;52.172;5.378;2024-03-02T05:41:02;1.57;;;1.40;;
7957;SDS011;4024;52.172;5.378;2024-03-02T05:43:28;1.30;;;1.20;;
7957;SDS011;4024;52.172;5.378;2024-03-02T05:45:54;3.47;;;1.60;;
7957;SDS011;4024;52.172;5.378;2024-03-02T05:48:19;5.73;;;1.40;;
7957;SDS011;4024;52.172;5.378;2024-03-02T05:50:45;1.63;;;1.53;;
7957;SDS011;4024;52.172;5.378;2024-03-02T05:53:10;2.23;;;1.53;;
7957;SDS011;4024;52.172;5.378;2024-03-02T05:55:36;1.80;;;1.23;;
7957;SDS011;4024;52.172;5.378;2024-03-02T05:58:02;4.60;;;1.60;;
7957;SDS011;4024;52.172;5.378;2024-03-02T06:00:36;2.47;;;1.30;;
7957;SDS011;4024;52.172;5.378;2024-03-02T06:03:02;1.40;;;1.30;;
7957;SDS011;4024;52.172;5.378;2024-03-02T06:05:27;2.70;;;1.50;;
7957;SDS011;4024;52.172;5.378;2024-03-02T06:07:53;1.47;;;1.20;;
7957;SDS011;4024;52.172;5.378;2024-03-02T06:10:19;2.13;;;1.33;;
7957;SDS011;4024;52.172;5.378;2024-03-02T06:12:45;3.70;;;1.50;;
7957;SDS011;4024;52.172;5.378;2024-03-02T06:15:11;2.00;;;1.00;;
7957;SDS011;4024;52.172;5.378;2024-03-02T06:17:37;1.67;;;1.43;;
7957;SDS011;4024;52.172;5.378;2024-03-02T06:20:02;2.37;;;1.30;;
7957;SDS011;4024;52.172;5.378;2024-03-02T06:22:28;2.30;;;1.50;;
7957;SDS011;4024;52.172;5.378;2024-03-02T06:24:54;2.17;;;1.30;;
7957;SDS011;4024;52.172;5.378;2024-03-02T06:27:19;1.77;;;1.10;;
7957;SDS011;4024;52.172;5.378;2024-03-02T06:29:45;2.30;;;1.47;;
7957;SDS011;4024;52.172;5.378;2024-03-02T06:32:11;2.63;;;1.50;;
7957;SDS011;4024;52.172;5.378;2024-03-02T06:34:36;4.30;;;1.60;;
7957;SDS011;4024;52.172;5.378;2024-03-02T06:37:02;1.47;;;1.37;;
7957;SDS011;4024;52.172;5.378;2024-03-02T06:39:28;1.97;;;1.30;;
7957;SDS011;4024;52.172;5.378;2024-03-02T06:41:54;1.40;;;1.30;;
7957;SDS011;4024;52.172;5.378;2024-03-02T06:44:19;4.03;;;1.50;;
7957;SDS011;4024;52.172;5.378;2024-03-02T06:46:46;2.30;;;1.50;;
7957;SDS011;4024;52.172;5.378;2024-03-02T06:49:11;2.00;;;1.40;;
7957;SDS011;4024;52.172;5.378;2024-03-02T06:51:37;1.63;;;1.37;;
7957;SDS011;4024;52.172;5.378;2024-03-02T06:54:03;2.60;;;1.40;;
7957;SDS011;4024;52.172;5.378;2024-03-02T06:56:28;1.73;;;1.30;;
7957;SDS011;4024;52.172;5.378;2024-03-02T06:58:55;2.03;;;1.20;;
7957;SDS011;4024;52.172;5.378;2024-03-02T07:01:23;3.10;;;1.60;;
7957;SDS011;4024;52.172;5.378;2024-03-02T07:03:51;2.03;;;1.40;;
7957;SDS011;4024;52.172;5.378;2024-03-02T07:06:17;2.70;;;1.40;;
7957;SDS011;4024;52.172;5.378;2024-03-02T07:08:42;1.87;;;1.77;;
7957;SDS011;4024;52.172;5.378;2024-03-02T07:11:08;3.63;;;1.47;;
7957;SDS011;4024;52.172;5.378;2024-03-02T07:13:34;1.47;;;1.30;;
7957;SDS011;4024;52.172;5.378;2024-03-02T07:16:00;2.20;;;1.43;;
7957;SDS011;4024;52.172;5.378;2024-03-02T07:18:31;2.13;;;1.30;;
7957;SDS011;4024;52.172;5.378;2024-03-02T07:20:58;2.17;;;1.50;;
7957;SDS011;4024;52.172;5.378;2024-03-02T07:23:26;3.17;;;1.73;;
7957;SDS011;4024;52.172;5.378;2024-03-02T07:25:55;2.87;;;1.60;;
7957;SDS011;4024;52.172;5.378;2024-03-02T07:28:22;1.80;;;1.57;;
7957;SDS011;4024;52.172;5.378;2024-03-02T07:30:58;1.97;;;1.67;;
7957;SDS011;4024;52.172;5.378;2024-03-02T07:33:28;5.00;;;1.90;;
7957;SDS011;4024;52.172;5.378;2024-03-02T07:35:54;4.00;;;1.40;;
7957;SDS011;4024;52.172;5.378;2024-03-02T07:38:20;3.40;;;1.40;;
7957;SDS011;4024;52.172;5.378;2024-03-02T07:40:47;1.33;;;1.20;;
7957;SDS011;4024;52.172;5.378;2024-03-02T07:43:15;1.63;;;1.20;;
7957;SDS011;4024;52.172;5.378;2024-03-02T07:45:42;2.13;;;1.47;;
7957;SDS011;4024;52.172;5.378;2024-03-02T07:48:07;3.53;;;1.50;;
7957;SDS011;4024;52.172;5.378;2024-03-02T07:50:33;3.93;;;1.70;;
7957;SDS011;4024;52.172;5.378;2024-03-02T07:53:00;1.73;;;1.50;;
7957;SDS011;4024;52.172;5.378;2024-03-02T07:55:26;1.60;;;1.47;;
7957;SDS011;4024;52.172;5.378;2024-03-02T07:57:52;3.30;;;1.50;;
7957;SDS011;4024;52.172;5.378;2024-03-02T08:00:18;3.00;;;1.40;;
7957;SDS011;4024;52.172;5.378;2024-03-02T08:02:43;3.70;;;1.90;;
7957;SDS011;4024;52.172;5.378;2024-03-02T08:05:09;2.97;;;1.47;;
7957;SDS011;4024;52.172;5.378;2024-03-02T08:07:35;2.57;;;1.30;;
7957;SDS011;4024;52.172;5.378;2024-03-02T08:10:01;5.73;;;1.53;;
7957;SDS011;4024;52.172;5.378;2024-03-02T08:12:26;1.50;;;1.40;;
7957;SDS011;4024;52.172;5.378;2024-03-02T08:14:52;2.47;;;1.60;;
7957;SDS011;4024;52.172;5.378;2024-03-02T08:17:17;2.47;;;1.70;;
7957;SDS011;4024;52.172;5.378;2024-03-02T08:19:43;4.53;;;1.60;;
7957;SDS011;4024;52.172;5.378;2024-03-02T08:22:09;3.53;;;1.63;;
7957;SDS011;4024;52.172;5.378;2024-03-02T08:24:35;3.63;;;1.57;;
7957;SDS011;4024;52.172;5.378;2024-03-02T08:27:01;3.67;;;1.63;;
7957;SDS011;4024;52.172;5.378;2024-03-02T08:29:27;2.87;;;1.70;;
7957;SDS011;4024;52.172;5.378;2024-03-02T08:31:53;1.47;;;1.37;;
7957;SDS011;4024;52.172;5.378;2024-03-02T08:34:19;2.77;;;1.50;;
7957;SDS011;4024;52.172;5.378;2024-03-02T08:36:45;2.60;;;1.50;;
7957;SDS011;4024;52.172;5.378;2024-03-02T08:39:11;3.20;;;1.40;;
7957;SDS011;4024;52.172;5.378;2024-03-02T08:41:41;2.40;;;1.50;;
7957;SDS011;4024;52.172;5.378;2024-03-02T08:44:08;1.60;;;1.33;;
7957;SDS011;4024;52.172;5.378;2024-03-02T08:46:34;2.67;;;1.60;;
7957;SDS011;4024;52.172;5.378;2024-03-02T08:49:00;2.47;;;1.50;;
7957;SDS011;4024;52.172;5.378;2024-03-02T08:51:26;2.00;;;1.47;;
7957;SDS011;4024;52.172;5.378;2024-03-02T08:53:51;4.00;;;1.80;;
7957;SDS011;4024;52.172;5.378;2024-03-02T08:56:17;3.77;;;1.40;;
7957;SDS011;4024;52.172;5.378;2024-03-02T08:58:43;2.33;;;1.50;;
7957;SDS011;4024;52.172;5.378;2024-03-02T09:01:09;2.97;;;1.60;;
7957;SDS011;4024;52.172;5.378;2024-03-02T09:03:35;2.87;;;1.60;;
7957;SDS011;4024;52.172;5.378;2024-03-02T09:06:02;2.23;;;1.47;;
7957;SDS011;4024;52.172;5.378;2024-03-02T09:08:28;4.40;;;1.60;;
7957;SDS011;4024;52.172;5.378;2024-03-02T09:10:54;3.87;;;1.43;;
7957;SDS011;4024;52.172;5.378;2024-03-02T09:13:20;4.63;;;1.77;;
7957;SDS011;4024;52.172;5.378;2024-03-02T09:15:46;2.43;;;1.50;;
7957;SDS011;4024;52.172;5.378;2024-03-02T09:18:11;3.00;;;1.70;;
7957;SDS011;4024;52.172;5.378;2024-03-02T09:20:37;5.53;;;1.83;;
7957;SDS011;4024;52.172;5.378;2024-03-02T09:23:02;5.30;;;1.50;;
7957;SDS011;4024;52.172;5.378;2024-03-02T09:25:28;2.40;;;1.77;;
7957;SDS011;4024;52.172;5.378;2024-03-02T09:27:54;6.30;;;1.60;;
7957;SDS011;4024;52.172;5.378;2024-03-02T09:30:20;4.77;;;1.83;;
7957;SDS011;4024;52.172;5.378;2024-03-02T09:32:45;4.63;;;1.90;;
7957;SDS011;4024;52.172;5.378;2024-03-02T09:35:11;4.00;;;1.90;;
7957;SDS011;4024;52.172;5.378;2024-03-02T09:37:37;5.03;;;2.03;;
7957;SDS011;4024;52.172;5.378;2024-03-02T09:40:03;7.10;;;2.17;;
7957;SDS011;4024;52.172;5.378;2024-03-02T09:42:31;5.30;;;2.10;;
7957;SDS011;4024;52.172;5.378;2024-03-02T09:44:57;7.70;;;2.57;;
7957;SDS011;4024;52.172;5.378;2024-03-02T09:47:23;6.77;;;2.47;;
7957;SDS011;4024;52.172;5.378;2024-03-02T09:49:50;4.03;;;1.90;;
7957;SDS011;4024;52.172;5.378;2024-03-02T09:52:15;7.60;;;2.50;;
7957;SDS011;4024;52.172;5.378;2024-03-02T09:54:41;2.83;;;2.00;;
7957;SDS011;4024;52.172;5.378;2024-03-02T09:57:09;5.30;;;2.00;;
7957;SDS011;4024;52.172;5.378;2024-03-02T09:59:34;4.27;;;2.00;;
7957;SDS011;4024;52.172;5.378;2024-03-02T10:02:01;7.90;;;2.70;;
7957;SDS011;4024;52.172;5.378;2024-03-02T10:04:28;4.00;;;1.70;;
7957;SDS011;4024;52.172;5.378;2024-03-02T10:07:15;5.33;;;2.43;;
7957;SDS011;4024;52.172;5.378;2024-03-02T10:09:42;6.60;;;2.10;;
7957;SDS011;4024;52.172;5.378;2024-03-02T10:12:09;5.83;;;2.00;;
7957;SDS011;4024;52.172;5.378;2024-03-02T10:14:39;6.83;;;2.27;;
7957;SDS011;4024;52.172;5.378;2024-03-02T10:17:06;6.07;;;1.93;;
7957;SDS011;4024;52.172;5.378;2024-03-02T10:19:33;5.30;;;2.17;;
7957;SDS011;4024;52.172;5.378;2024-03-02T10:22:08;4.43;;;1.90;;
7957;SDS011;4024;52.172;5.378;2024-03-02T10:24:43;4.20;;;1.77;;
7957;SDS011;4024;52.172;5.378;2024-03-02T10:27:10;6.63;;;2.00;;
7957;SDS011;4024;52.172;5.378;2024-03-02T10:29:46;4.87;;;1.70;;
7957;SDS011;4024;52.172;5.378;2024-03-02T10:32:12;4.10;;;2.03;;
7957;SDS011;4024;52.172;5.378;2024-03-02T10:34:43;5.73;;;2.40;;
7957;SDS011;4024;52.172;5.378;2024-03-02T10:37:10;4.77;;;1.80;;
7957;SDS011;4024;52.172;5.378;2024-03-02T10:39:37;2.53;;;1.70;;
7957;SDS011;4024;52.172;5.378;2024-03-02T10:42:07;5.80;;;2.13;;
7957;SDS011;4024;52.172;5.378;2024-03-02T10:44:33;4.23;;;1.90;;
7957;SDS011;4024;52.172;5.378;2024-03-02T10:47:00;5.00;;;1.70;;
7957;SDS011;4024;52.172;5.378;2024-03-02T10:49:30;8.27;;;2.17;;
7957;SDS011;4024;52.172;5.378;2024-03-02T10:51:59;4.03;;;1.77;;
7957;SDS011;4024;52.172;5.378;2024-03-02T10:54:26;3.80;;;1.70;;
7957;SDS011;4024;52.172;5.378;2024-03-02T10:56:52;3.17;;;1.77;;
7957;SDS011;4024;52.172;5.378;2024-03-02T10:59:28;7.77;;;2.10;;
7957;SDS011;4024;52.172;5.378;2024-03-02T11:01:59;5.00;;;1.70;;
7957;SDS011;4024;52.172;5.378;2024-03-02T11:04:26;4.50;;;2.00;;
7957;SDS011;4024;52.172;5.378;2024-03-02T11:07:09;5.23;;;2.03;;
7957;SDS011;4024;52.172;5.378;2024-03-02T11:09:37;3.73;;;1.70;;
7957;SDS011;4024;52.172;5.378;2024-03-02T11:12:09;6.93;;;1.90;;
7957;SDS011;4024;52.172;5.378;2024-03-02T11:14:40;3.80;;;2.03;;
7957;SDS011;4024;52.172;5.378;2024-03-02T11:17:10;4.30;;;1.80;;
7957;SDS011;4024;52.172;5.378;2024-03-02T11:19:38;4.20;;;1.80;;
7957;SDS011;4024;52.172;5.378;2024-03-02T11:22:05;4.50;;;1.90;;
7957;SDS011;4024;52.172;5.378;2024-03-02T11:24:31;3.40;;;1.70;;
7957;SDS011;4024;52.172;5.378;2024-03-02T11:26:58;2.57;;;1.63;;
7957;SDS011;4024;52.172;5.378;2024-03-02T11:32:06;2.67;;;1.70;;
7957;SDS011;4024;52.172;5.378;2024-03-02T11:34:42;5.27;;;1.53;;
7957;SDS011;4024;52.172;5.378;2024-03-02T11:37:10;4.20;;;1.57;;
7957;SDS011;4024;52.172;5.378;2024-03-02T11:39:37;3.80;;;1.80;;
7957;SDS011;4024;52.172;5.378;2024-03-02T11:42:07;2.37;;;1.60;;
7957;SDS011;4024;52.172;5.378;2024-03-02T11:44:34;2.33;;;1.60;;
7957;SDS011;4024;52.172;5.378;2024-03-02T11:47:01;2.80;;;1.77;;
7957;SDS011;4024;52.172;5.378;2024-03-02T11:49:43;3.10;;;1.90;;
7957;SDS011;4024;52.172;5.378;2024-03-02T11:52:11;3.87;;;1.70;;
7957;SDS011;4024;52.172;5.378;2024-03-02T11:54:38;2.67;;;1.80;;
7957;SDS011;4024;52.172;5.378;2024-03-02T11:57:05;3.23;;;1.60;;
7957;SDS011;4024;52.172;5.378;2024-03-02T11:59:34;4.47;;;1.60;;
7957;SDS011;4024;52.172;5.378;2024-03-02T12:02:00;3.33;;;1.63;;
7957;SDS011;4024;52.172;5.378;2024-03-02T12:04:26;6.00;;;1.70;;
7957;SDS011;4024;52.172;5.378;2024-03-02T12:06:55;5.87;;;2.20;;
7957;SDS011;4024;52.172;5.378;2024-03-02T12:09:24;2.90;;;1.80;;
7957;SDS011;4024;52.172;5.378;2024-03-02T12:12:00;1.80;;;1.50;;
7957;SDS011;4024;52.172;5.378;2024-03-02T12:14:34;3.20;;;1.80;;
7957;SDS011;4024;52.172;5.378;2024-03-02T12:17:01;3.47;;;1.53;;
7957;SDS011;4024;52.172;5.378;2024-03-02T12:19:28;3.10;;;1.70;;
7957;SDS011;4024;52.172;5.378;2024-03-02T12:21:55;4.20;;;1.50;;
7957;SDS011;4024;52.172;5.378;2024-03-02T12:24:21;3.17;;;1.50;;
7957;SDS011;4024;52.172;5.378;2024-03-02T12:26:48;2.67;;;1.53;;
7957;SDS011;4024;52.172;5.378;2024-03-02T12:29:15;2.43;;;1.50;;
7957;SDS011;4024;52.172;5.378;2024-03-02T12:31:42;2.40;;;1.70;;
7957;SDS011;4024;52.172;5.378;2024-03-02T12:34:11;3.63;;;1.40;;
7957;SDS011;4024;52.172;5.378;2024-03-02T12:36:38;3.47;;;1.57;;
7957;SDS011;4024;52.172;5.378;2024-03-02T12:39:06;2.70;;;1.70;;
7957;SDS011;4024;52.172;5.378;2024-03-02T12:41:35;2.57;;;1.40;;
7957;SDS011;4024;52.172;5.378;2024-03-02T12:44:07;2.80;;;1.43;;
7957;SDS011;4024;52.172;5.378;2024-03-02T12:46:33;4.83;;;1.97;;
7957;SDS011;4024;52.172;5.378;2024-03-02T12:49:04;3.20;;;1.80;;
7957;SDS011;4024;52.172;5.378;2024-03-02T12:51:36;2.97;;;1.83;;
7957;SDS011;4024;52.172;5.378;2024-03-02T12:54:05;2.53;;;1.60;;
7957;SDS011;4024;52.172;5.378;2024-03-02T12:56:31;2.80;;;1.67;;
7957;SDS011;4024;52.172;5.378;2024-03-02T12:58:57;4.47;;;1.70;;
7957;SDS011;4024;52.172;5.378;2024-03-02T13:01:24;1.93;;;1.53;;
7957;SDS011;4024;52.172;5.378;2024-03-02T13:03:49;3.03;;;1.90;;
7957;SDS011;4024;52.172;5.378;2024-03-02T13:06:16;2.13;;;1.53;;
7957;SDS011;4024;52.172;5.378;2024-03-02T13:08:42;1.83;;;1.30;;
7957;SDS011;4024;52.172;5.378;2024-03-02T13:11:08;3.37;;;1.53;;
7957;SDS011;4024;52.172;5.378;2024-03-02T13:13:34;2.77;;;1.70;;
7957;SDS011;4024;52.172;5.378;2024-03-02T13:16:00;3.83;;;1.83;;
7957;SDS011;4024;52.172;5.378;2024-03-02T13:18:26;4.77;;;1.67;;
7957;SDS011;4024;52.172;5.378;2024-03-02T13:20:54;3.13;;;1.60;;
7957;SDS011;4024;52.172;5.378;2024-03-02T13:23:21;3.07;;;1.80;;
7957;SDS011;4024;52.172;5.378;2024-03-02T13:25:46;4.27;;;2.13;;
7957;SDS011;4024;52.172;5.378;2024-03-02T13:28:12;3.27;;;1.70;;
7957;SDS011;4024;52.172;5.378;2024-03-02T13:30:38;5.40;;;1.87;;
7957;SDS011;4024;52.172;5.378;2024-03-02T13:33:04;5.17;;;1.90;;
7957;SDS011;4024;52.172;5.378;2024-03-02T13:35:30;3.07;;;1.73;;
7957;SDS011;4024;52.172;5.378;2024-03-02T13:37:55;6.33;;;1.80;;
7957;SDS011;4024;52.172;5.378;2024-03-02T13:40:21;2.73;;;1.83;;
7957;SDS011;4024;52.172;5.378;2024-03-02T13:42:48;4.07;;;1.77;;
7957;SDS011;4024;52.172;5.378;2024-03-02T13:45:15;4.03;;;1.73;;
7957;SDS011;4024;52.172;5.378;2024-03-02T13:47:43;3.77;;;1.80;;
7957;SDS011;4024;52.172;5.378;2024-03-02T13:50:08;2.80;;;1.70;;
7957;SDS011;4024;52.172;5.378;2024-03-02T13:52:34;2.63;;;2.07;;
7957;SDS011;4024;52.172;5.378;2024-03-02T13:55:00;2.83;;;2.03;;
7957;SDS011;4024;52.172;5.378;2024-03-02T13:57:25;3.50;;;1.80;;
7957;SDS011;4024;52.172;5.378;2024-03-02T13:59:51;5.87;;;1.90;;
7957;SDS011;4024;52.172;5.378;2024-03-02T14:02:17;6.13;;;2.17;;
7957;SDS011;4024;52.172;5.378;2024-03-02T14:04:43;3.47;;;2.00;;
7957;SDS011;4024;52.172;5.378;2024-03-02T14:07:09;3.27;;;1.70;;
7957;SDS011;4024;52.172;5.378;2024-03-02T14:09:37;3.83;;;2.10;;
7957;SDS011;4024;52.172;5.378;2024-03-02T14:12:03;2.50;;;1.97;;
7957;SDS011;4024;52.172;5.378;2024-03-02T14:14:29;4.50;;;2.00;;
7957;SDS011;4024;52.172;5.378;2024-03-02T14:16:55;5.63;;;2.37;;
7957;SDS011;4024;52.172;5.378;2024-03-02T14:19:21;4.47;;;2.00;;
7957;SDS011;4024;52.172;5.378;2024-03-02T14:21:47;2.10;;;1.87;;
7957;SDS011;4024;52.172;5.378;2024-03-02T14:24:13;4.67;;;2.00;;
7957;SDS011;4024;52.172;5.378;2024-03-02T14:26:38;4.23;;;2.20;;
7957;SDS011;4024;52.172;5.378;2024-03-02T14:29:04;2.57;;;1.70;;
7957;SDS011;4024;52.172;5.378;2024-03-02T14:31:30;2.93;;;1.70;;
7957;SDS011;4024;52.172;5.378;2024-03-02T14:33:56;4.70;;;2.17;;
7957;SDS011;4024;52.172;5.378;2024-03-02T14:36:22;4.83;;;2.53;;
7957;SDS011;4024;52.172;5.378;2024-03-02T14:38:48;3.37;;;1.80;;
7957;SDS011;4024;52.172;5.378;2024-03-02T14:41:14;1.80;;;1.70;;
7957;SDS011;4024;52.172;5.378;2024-03-02T14:43:40;2.80;;;2.00;;
7957;SDS011;4024;52.172;5.378;2024-03-02T14:46:05;5.07;;;2.00;;
7957;SDS011;4024;52.172;5.378;2024-03-02T14:48:34;2.43;;;1.83;;
7957;SDS011;4024;52.172;5.378;2024-03-02T14:51:00;3.63;;;2.17;;
7957;SDS011;4024;52.172;5.378;2024-03-02T14:53:27;4.00;;;1.97;;
7957;SDS011;4024;52.172;5.378;2024-03-02T14:55:53;2.77;;;1.73;;
7957;SDS011;4024;52.172;5.378;2024-03-02T14:58:19;6.30;;;2.20;;
7957;SDS011;4024;52.172;5.378;2024-03-02T15:00:44;2.67;;;1.90;;
7957;SDS011;4024;52.172;5.378;2024-03-02T15:03:10;4.50;;;2.23;;
7957;SDS011;4024;52.172;5.378;2024-03-02T15:05:37;3.63;;;2.07;;
7957;SDS011;4024;52.172;5.378;2024-03-02T15:08:03;3.10;;;1.87;;
7957;SDS011;4024;52.172;5.378;2024-03-02T15:10:30;4.87;;;2.00;;
7957;SDS011;4024;52.172;5.378;2024-03-02T15:12:56;2.57;;;2.07;;
7957;SDS011;4024;52.172;5.378;2024-03-02T15:15:22;2.63;;;1.90;;
7957;SDS011;4024;52.172;5.378;2024-03-02T15:17:48;5.80;;;1.97;;
7957;SDS011;4024;52.172;5.378;2024-03-02T15:20:13;2.47;;;1.83;;
7957;SDS011;4024;52.172;5.378;2024-03-02T15:22:39;1.53;;;1.43;;
7957;SDS011;4024;52.172;5.378;2024-03-02T15:25:06;3.33;;;1.73;;